sensor_id;sensor_type;location;lat;lon;timestamp;P1;durP1;ratioP1;P2;durP2;ratioP2
78664;SDS011;67981;51.022;-2.870;2024-01-15T00:01:07;2.17;;;1.15;;
78664;SDS011;67981;51.022;-2.870;2024-01-15T00:03:33;2.35;;;0.98;;
78664;SDS011;67981;51.022;-2.870;2024-01-15T00:05:58;8.50;;;3.30;;
78664;SDS011;67981;51.022;-2.870;2024-01-15T00:08:23;6.18;;;2.97;;
78664;SDS011;67981;51.022;-2.870;2024-01-15T00:10:49;3.70;;;1.85;;
78664;SDS011;67981;51.022;-2.870;2024-01-15T00:13:14;5.78;;;2.50;;
78664;SDS011;67981;51.022;-2.870;2024-01-15T00:15:40;4.80;;;2.70;;
78664;SDS011;67981;51.022;-2.870;2024-01-15T00:18:05;3.65;;;3.15;;
78664;SDS011;67981;51.022;-2.870;2024-01-15T00:20:31;4.38;;;2.15;;
78664;SDS011;67981;51.022;-2.870;2024-01-15T00:22:56;3.55;;;1.67;;
78664;SDS011;67981;51.022;-2.870;2024-01-15T00:25:22;5.40;;;2.20;;
78664;SDS011;67981;51.022;-2.870;2024-01-15T00:27:47;6.30;;;2.42;;
78664;SDS011;67981;51.022;-2.870;2024-01-15T00:30:13;4.15;;;2.45;;
78664;SDS011;67981;51.022;-2.870;2024-01-15T00:32:38;2.28;;;1.10;;
78664;SDS011;67981;51.022;-2.870;2024-01-15T00:35:04;3.70;;;1.38;;
78664;SDS011;67981;51.022;-2.870;2024-01-15T00:37:30;2.55;;;0.93;;
78664;SDS011;67981;51.022;-2.870;2024-01-15T00:39:55;3.17;;;0.95;;
78664;SDS011;67981;51.022;-2.870;2024-01-15T00:42:20;2.30;;;0.73;;
78664;SDS011;67981;51.022;-2.870;2024-01-15T00:44:46;2.58;;;1.20;;
78664;SDS011;67981;51.022;-2.870;2024-01-15T00:47:11;4.30;;;1.13;;
78664;SDS011;67981;51.022;-2.870;2024-01-15T00:49:37;2.53;;;1.08;;
78664;SDS011;67981;51.022;-2.870;2024-01-15T00:52:02;2.42;;;1.05;;
78664;SDS011;67981;51.022;-2.870;2024-01-15T00:54:28;1.75;;;0.90;;
78664;SDS011;67981;51.022;-2.870;2024-01-15T00:56:53;1.48;;;0.93;;
78664;SDS011;67981;51.022;-2.870;2024-01-15T00:59:19;2.05;;;1.10;;
78664;SDS011;67981;51.022;-2.870;2024-01-15T01:01:45;1.52;;;0.98;;
78664;SDS011;67981;51.022;-2.870;2024-01-15T01:04:11;3.35;;;1.40;;
78664;SDS011;67981;51.022;-2.870;2024-01-15T01:06:37;3.50;;;1.90;;
78664;SDS011;67981;51.022;-2.870;2024-01-15T01:09:02;4.05;;;1.70;;
78664;SDS011;67981;51.022;-2.870;2024-01-15T01:11:28;4.43;;;1.60;;
78664;SDS011;67981;51.022;-2.870;2024-01-15T01:13:54;3.47;;;1.65;;
78664;SDS011;67981;51.022;-2.870;2024-01-15T01:16:21;5.38;;;2.63;;
78664;SDS011;67981;51.022;-2.870;2024-01-15T01:18:47;3.65;;;1.73;;
78664;SDS011;67981;51.022;-2.870;2024-01-15T01:21:12;3.72;;;2.08;;
78664;SDS011;67981;51.022;-2.870;2024-01-15T01:23:37;3.65;;;1.67;;
78664;SDS011;67981;51.022;-2.870;2024-01-15T01:26:03;2.70;;;1.45;;
78664;SDS011;67981;51.022;-2.870;2024-01-15T01:28:28;4.40;;;2.28;;
78664;SDS011;67981;51.022;-2.870;2024-01-15T01:30:54;4.72;;;2.08;;
78664;SDS011;67981;51.022;-2.870;2024-01-15T01:33:19;3.67;;;1.85;;
78664;SDS011;67981;51.022;-2.870;2024-01-15T01:35:45;4.90;;;1.70;;
78664;SDS011;67981;51.022;-2.870;2024-01-15T01:38:11;4.07;;;1.83;;
78664;SDS011;67981;51.022;-2.870;2024-01-15T01:40:37;3.42;;;1.52;;
78664;SDS011;67981;51.022;-2.870;2024-01-15T01:43:03;2.35;;;1.48;;
78664;SDS011;67981;51.022;-2.870;2024-01-15T01:45:30;2.35;;;1.77;;
78664;SDS011;67981;51.022;-2.870;2024-01-15T01:47:55;1.40;;;1.02;;
78664;SDS011;67981;51.022;-2.870;2024-01-15T01:50:20;1.38;;;0.90;;
78664;SDS011;67981;51.022;-2.870;2024-01-15T01:52:46;1.75;;;0.68;;
78664;SDS011;67981;51.022;-2.870;2024-01-15T01:55:13;2.45;;;0.82;;
78664;SDS011;67981;51.022;-2.870;2024-01-15T01:57:39;0.90;;;0.68;;
78664;SDS011;67981;51.022;-2.870;2024-01-15T02:00:06;1.40;;;0.88;;
78664;SDS011;67981;51.022;-2.870;2024-01-15T02:02:33;1.58;;;0.80;;
78664;SDS011;67981;51.022;-2.870;2024-01-15T02:04:59;1.58;;;0.75;;
78664;SDS011;67981;51.022;-2.870;2024-01-15T02:07:24;1.13;;;0.60;;
78664;SDS011;67981;51.022;-2.870;2024-01-15T02:09:50;3.83;;;1.10;;
78664;SDS011;67981;51.022;-2.870;2024-01-15T02:12:16;2.58;;;0.75;;
78664;SDS011;67981;51.022;-2.870;2024-01-15T02:14:41;2.88;;;0.80;;
78664;SDS011;67981;51.022;-2.870;2024-01-15T02:17:07;1.73;;;0.85;;
78664;SDS011;67981;51.022;-2.870;2024-01-15T02:19:32;0.68;;;0.57;;
78664;SDS011;67981;51.022;-2.870;2024-01-15T02:21:58;1.67;;;0.65;;
78664;SDS011;67981;51.022;-2.870;2024-01-15T02:24:23;4.57;;;1.00;;
78664;SDS011;67981;51.022;-2.870;2024-01-15T02:26:49;1.42;;;1.00;;
78664;SDS011;67981;51.022;-2.870;2024-01-15T02:29:14;3.25;;;0.70;;
78664;SDS011;67981;51.022;-2.870;2024-01-15T02:31:40;5.00;;;1.23;;
78664;SDS011;67981;51.022;-2.870;2024-01-15T02:34:06;1.27;;;0.80;;
78664;SDS011;67981;51.022;-2.870;2024-01-15T02:36:31;2.38;;;1.38;;
78664;SDS011;67981;51.022;-2.870;2024-01-15T02:38:56;2.10;;;1.23;;
78664;SDS011;67981;51.022;-2.870;2024-01-15T02:41:22;4.72;;;1.73;;
78664;SDS011;67981;51.022;-2.870;2024-01-15T02:43:47;1.40;;;1.10;;
78664;SDS011;67981;51.022;-2.870;2024-01-15T02:46:13;2.47;;;1.08;;
78664;SDS011;67981;51.022;-2.870;2024-01-15T02:48:38;6.80;;;1.05;;
78664;SDS011;67981;51.022;-2.870;2024-01-15T02:51:04;3.80;;;1.10;;
78664;SDS011;67981;51.022;-2.870;2024-01-15T02:53:29;5.15;;;1.45;;
78664;SDS011;67981;51.022;-2.870;2024-01-15T02:55:55;2.60;;;1.10;;
78664;SDS011;67981;51.022;-2.870;2024-01-15T02:58:20;1.67;;;1.00;;
78664;SDS011;67981;51.022;-2.870;2024-01-15T03:00:46;4.75;;;1.42;;
78664;SDS011;67981;51.022;-2.870;2024-01-15T03:03:12;2.05;;;1.05;;
78664;SDS011;67981;51.022;-2.870;2024-01-15T03:05:37;2.45;;;1.25;;
78664;SDS011;67981;51.022;-2.870;2024-01-15T03:08:03;6.78;;;1.48;;
78664;SDS011;67981;51.022;-2.870;2024-01-15T03:10:28;1.15;;;0.77;;
78664;SDS011;67981;51.022;-2.870;2024-01-15T03:12:54;3.22;;;1.30;;
78664;SDS011;67981;51.022;-2.870;2024-01-15T03:15:19;1.73;;;1.00;;
78664;SDS011;67981;51.022;-2.870;2024-01-15T03:17:45;2.60;;;1.40;;
78664;SDS011;67981;51.022;-2.870;2024-01-15T03:20:10;1.63;;;0.95;;
78664;SDS011;67981;51.022;-2.870;2024-01-15T03:22:36;4.13;;;1.70;;
78664;SDS011;67981;51.022;-2.870;2024-01-15T03:25:02;3.33;;;1.35;;
78664;SDS011;67981;51.022;-2.870;2024-01-15T03:27:29;3.63;;;1.80;;
78664;SDS011;67981;51.022;-2.870;2024-01-15T03:29:54;1.77;;;0.85;;
78664;SDS011;67981;51.022;-2.870;2024-01-15T03:32:20;4.45;;;1.00;;
78664;SDS011;67981;51.022;-2.870;2024-01-15T03:34:45;3.40;;;1.45;;
78664;SDS011;67981;51.022;-2.870;2024-01-15T03:37:12;3.92;;;1.83;;
78664;SDS011;67981;51.022;-2.870;2024-01-15T03:39:38;3.53;;;1.70;;
78664;SDS011;67981;51.022;-2.870;2024-01-15T03:42:03;3.95;;;1.98;;
78664;SDS011;67981;51.022;-2.870;2024-01-15T03:44:29;4.45;;;2.05;;
78664;SDS011;67981;51.022;-2.870;2024-01-15T03:46:54;4.05;;;1.58;;
78664;SDS011;67981;51.022;-2.870;2024-01-15T03:49:20;4.18;;;1.70;;
78664;SDS011;67981;51.022;-2.870;2024-01-15T03:51:45;3.35;;;2.00;;
78664;SDS011;67981;51.022;-2.870;2024-01-15T03:54:11;2.85;;;1.70;;
78664;SDS011;67981;51.022;-2.870;2024-01-15T03:56:36;4.28;;;2.45;;
78664;SDS011;67981;51.022;-2.870;2024-01-15T03:59:01;5.35;;;2.20;;
78664;SDS011;67981;51.022;-2.870;2024-01-15T04:01:28;4.18;;;1.70;;
78664;SDS011;67981;51.022;-2.870;2024-01-15T04:03:53;5.50;;;1.60;;
78664;SDS011;67981;51.022;-2.870;2024-01-15T04:06:18;3.90;;;1.92;;
78664;SDS011;67981;51.022;-2.870;2024-01-15T04:08:44;4.15;;;1.90;;
78664;SDS011;67981;51.022;-2.870;2024-01-15T04:11:09;2.90;;;1.58;;
78664;SDS011;67981;51.022;-2.870;2024-01-15T04:13:34;2.22;;;1.27;;
78664;SDS011;67981;51.022;-2.870;2024-01-15T04:16:00;4.57;;;1.88;;
78664;SDS011;67981;51.022;-2.870;2024-01-15T04:18:25;3.58;;;1.98;;
78664;SDS011;67981;51.022;-2.870;2024-01-15T04:20:51;9.40;;;2.75;;
78664;SDS011;67981;51.022;-2.870;2024-01-15T04:23:16;5.13;;;2.00;;
78664;SDS011;67981;51.022;-2.870;2024-01-15T04:25:42;6.22;;;2.03;;
78664;SDS011;67981;51.022;-2.870;2024-01-15T04:28:10;3.67;;;1.98;;
78664;SDS011;67981;51.022;-2.870;2024-01-15T04:30:36;2.85;;;1.92;;
78664;SDS011;67981;51.022;-2.870;2024-01-15T04:33:01;2.50;;;1.77;;
78664;SDS011;67981;51.022;-2.870;2024-01-15T04:35:26;2.70;;;1.58;;
78664;SDS011;67981;51.022;-2.870;2024-01-15T04:37:52;6.63;;;2.50;;
78664;SDS011;67981;51.022;-2.870;2024-01-15T04:40:17;5.30;;;2.22;;
78664;SDS011;67981;51.022;-2.870;2024-01-15T04:42:43;4.32;;;2.08;;
78664;SDS011;67981;51.022;-2.870;2024-01-15T04:45:11;4.15;;;1.92;;
78664;SDS011;67981;51.022;-2.870;2024-01-15T04:47:36;4.53;;;2.00;;
78664;SDS011;67981;51.022;-2.870;2024-01-15T04:50:02;3.95;;;1.83;;
78664;SDS011;67981;51.022;-2.870;2024-01-15T04:52:28;6.35;;;2.40;;
78664;SDS011;67981;51.022;-2.870;2024-01-15T04:54:54;4.72;;;1.98;;
78664;SDS011;67981;51.022;-2.870;2024-01-15T04:57:19;6.25;;;2.13;;
78664;SDS011;67981;51.022;-2.870;2024-01-15T04:59:45;4.10;;;2.25;;
78664;SDS011;67981;51.022;-2.870;2024-01-15T05:02:10;3.58;;;1.83;;
78664;SDS011;67981;51.022;-2.870;2024-01-15T05:04:35;3.70;;;1.92;;
78664;SDS011;67981;51.022;-2.870;2024-01-15T05:07:01;4.45;;;2.08;;
78664;SDS011;67981;51.022;-2.870;2024-01-15T05:09:26;4.80;;;1.75;;
78664;SDS011;67981;51.022;-2.870;2024-01-15T05:11:52;4.20;;;2.20;;
78664;SDS011;67981;51.022;-2.870;2024-01-15T05:14:17;3.13;;;1.73;;
78664;SDS011;67981;51.022;-2.870;2024-01-15T05:16:51;2.65;;;1.23;;
78664;SDS011;67981;51.022;-2.870;2024-01-15T05:19:17;3.28;;;1.73;;
78664;SDS011;67981;51.022;-2.870;2024-01-15T05:21:43;2.63;;;1.10;;
78664;SDS011;67981;51.022;-2.870;2024-01-15T05:24:08;4.60;;;1.50;;
78664;SDS011;67981;51.022;-2.870;2024-01-15T05:26:34;5.50;;;2.30;;
78664;SDS011;67981;51.022;-2.870;2024-01-15T05:28:59;4.47;;;1.33;;
78664;SDS011;67981;51.022;-2.870;2024-01-15T05:31:25;3.72;;;1.20;;
78664;SDS011;67981;51.022;-2.870;2024-01-15T05:33:50;1.58;;;1.02;;
78664;SDS011;67981;51.022;-2.870;2024-01-15T05:36:16;2.35;;;0.90;;
78664;SDS011;67981;51.022;-2.870;2024-01-15T05:38:41;3.17;;;1.00;;
78664;SDS011;67981;51.022;-2.870;2024-01-15T05:41:06;1.75;;;0.80;;
78664;SDS011;67981;51.022;-2.870;2024-01-15T05:43:32;5.18;;;1.35;;
78664;SDS011;67981;51.022;-2.870;2024-01-15T05:45:57;3.25;;;1.90;;
78664;SDS011;67981;51.022;-2.870;2024-01-15T05:48:23;2.45;;;0.82;;
78664;SDS011;67981;51.022;-2.870;2024-01-15T05:50:48;4.32;;;0.85;;
78664;SDS011;67981;51.022;-2.870;2024-01-15T05:53:14;1.80;;;0.57;;
78664;SDS011;67981;51.022;-2.870;2024-01-15T05:55:39;4.55;;;0.88;;
78664;SDS011;67981;51.022;-2.870;2024-01-15T05:58:05;5.15;;;1.00;;
78664;SDS011;67981;51.022;-2.870;2024-01-15T06:00:30;1.98;;;0.85;;
78664;SDS011;67981;51.022;-2.870;2024-01-15T06:02:58;2.03;;;1.00;;
78664;SDS011;67981;51.022;-2.870;2024-01-15T06:05:23;3.60;;;1.05;;
78664;SDS011;67981;51.022;-2.870;2024-01-15T06:07:49;5.28;;;0.77;;
78664;SDS011;67981;51.022;-2.870;2024-01-15T06:10:14;1.92;;;1.02;;
78664;SDS011;67981;51.022;-2.870;2024-01-15T06:12:39;1.38;;;0.85;;
78664;SDS011;67981;51.022;-2.870;2024-01-15T06:15:05;2.35;;;0.75;;
78664;SDS011;67981;51.022;-2.870;2024-01-15T06:17:30;2.10;;;0.88;;
78664;SDS011;67981;51.022;-2.870;2024-01-15T06:19:56;4.57;;;0.77;;
78664;SDS011;67981;51.022;-2.870;2024-01-15T06:22:22;10.20;;;1.40;;
78664;SDS011;67981;51.022;-2.870;2024-01-15T06:24:48;1.90;;;0.70;;
78664;SDS011;67981;51.022;-2.870;2024-01-15T06:27:13;3.30;;;1.10;;
78664;SDS011;67981;51.022;-2.870;2024-01-15T06:29:38;3.65;;;1.08;;
78664;SDS011;67981;51.022;-2.870;2024-01-15T06:32:04;1.30;;;0.80;;
78664;SDS011;67981;51.022;-2.870;2024-01-15T06:34:30;3.08;;;1.27;;
78664;SDS011;67981;51.022;-2.870;2024-01-15T06:36:55;2.17;;;1.02;;
78664;SDS011;67981;51.022;-2.870;2024-01-15T06:39:20;2.45;;;0.93;;
78664;SDS011;67981;51.022;-2.870;2024-01-15T06:41:46;4.60;;;1.15;;
78664;SDS011;67981;51.022;-2.870;2024-01-15T06:44:12;6.97;;;1.48;;
78664;SDS011;67981;51.022;-2.870;2024-01-15T06:46:43;1.52;;;0.90;;
78664;SDS011;67981;51.022;-2.870;2024-01-15T06:49:09;5.00;;;1.08;;
78664;SDS011;67981;51.022;-2.870;2024-01-15T06:51:35;8.45;;;1.30;;
78664;SDS011;67981;51.022;-2.870;2024-01-15T06:54:01;3.47;;;1.02;;
78664;SDS011;67981;51.022;-2.870;2024-01-15T06:56:26;1.35;;;1.05;;
78664;SDS011;67981;51.022;-2.870;2024-01-15T06:58:52;1.98;;;1.25;;
78664;SDS011;67981;51.022;-2.870;2024-01-15T07:01:17;3.53;;;1.00;;
78664;SDS011;67981;51.022;-2.870;2024-01-15T07:03:43;10.13;;;1.13;;
78664;SDS011;67981;51.022;-2.870;2024-01-15T07:06:08;1.73;;;0.95;;
78664;SDS011;67981;51.022;-2.870;2024-01-15T07:08:33;1.73;;;1.33;;
78664;SDS011;67981;51.022;-2.870;2024-01-15T07:10:59;3.90;;;1.17;;
78664;SDS011;67981;51.022;-2.870;2024-01-15T07:13:24;2.88;;;0.93;;
78664;SDS011;67981;51.022;-2.870;2024-01-15T07:15:50;2.08;;;0.98;;
78664;SDS011;67981;51.022;-2.870;2024-01-15T07:18:15;1.95;;;1.40;;
78664;SDS011;67981;51.022;-2.870;2024-01-15T07:20:41;2.78;;;1.35;;
78664;SDS011;67981;51.022;-2.870;2024-01-15T07:23:07;2.80;;;1.15;;
78664;SDS011;67981;51.022;-2.870;2024-01-15T07:25:32;1.50;;;0.90;;
78664;SDS011;67981;51.022;-2.870;2024-01-15T07:27:58;2.10;;;0.70;;
78664;SDS011;67981;51.022;-2.870;2024-01-15T07:30:23;3.33;;;1.10;;
78664;SDS011;67981;51.022;-2.870;2024-01-15T07:32:48;2.55;;;1.00;;
78664;SDS011;67981;51.022;-2.870;2024-01-15T07:35:14;4.93;;;1.92;;
78664;SDS011;67981;51.022;-2.870;2024-01-15T07:37:40;6.03;;;2.42;;
78664;SDS011;67981;51.022;-2.870;2024-01-15T07:40:06;10.38;;;3.13;;
78664;SDS011;67981;51.022;-2.870;2024-01-15T07:42:33;15.18;;;5.43;;
78664;SDS011;67981;51.022;-2.870;2024-01-15T07:44:59;14.30;;;5.32;;
78664;SDS011;67981;51.022;-2.870;2024-01-15T07:47:25;14.05;;;5.70;;
78664;SDS011;67981;51.022;-2.870;2024-01-15T07:49:51;13.48;;;6.13;;
78664;SDS011;67981;51.022;-2.870;2024-01-15T07:52:16;15.63;;;7.35;;
78664;SDS011;67981;51.022;-2.870;2024-01-15T07:54:41;16.70;;;6.35;;
78664;SDS011;67981;51.022;-2.870;2024-01-15T07:57:07;21.90;;;9.07;;
78664;SDS011;67981;51.022;-2.870;2024-01-15T07:59:32;17.10;;;7.18;;
78664;SDS011;67981;51.022;-2.870;2024-01-15T08:01:59;16.60;;;5.45;;
78664;SDS011;67981;51.022;-2.870;2024-01-15T08:04:25;12.70;;;4.90;;
78664;SDS011;67981;51.022;-2.870;2024-01-15T08:06:50;11.23;;;4.05;;
78664;SDS011;67981;51.022;-2.870;2024-01-15T08:09:15;6.07;;;3.33;;
78664;SDS011;67981;51.022;-2.870;2024-01-15T08:11:41;3.03;;;1.83;;
78664;SDS011;67981;51.022;-2.870;2024-01-15T08:14:08;8.07;;;2.15;;
78664;SDS011;67981;51.022;-2.870;2024-01-15T08:16:34;3.00;;;1.80;;
78664;SDS011;67981;51.022;-2.870;2024-01-15T08:19:00;4.70;;;1.65;;
78664;SDS011;67981;51.022;-2.870;2024-01-15T08:21:25;6.38;;;1.40;;
78664;SDS011;67981;51.022;-2.870;2024-01-15T08:26:20;2.63;;;1.30;;
78664;SDS011;67981;51.022;-2.870;2024-01-15T08:28:46;4.68;;;1.80;;
78664;SDS011;67981;51.022;-2.870;2024-01-15T08:31:12;4.82;;;1.42;;
78664;SDS011;67981;51.022;-2.870;2024-01-15T08:33:38;2.30;;;1.63;;
78664;SDS011;67981;51.022;-2.870;2024-01-15T08:36:03;3.38;;;1.60;;
78664;SDS011;67981;51.022;-2.870;2024-01-15T08:38:29;2.58;;;1.48;;
78664;SDS011;67981;51.022;-2.870;2024-01-15T08:40:54;2.50;;;1.17;;
78664;SDS011;67981;51.022;-2.870;2024-01-15T08:43:21;3.72;;;1.50;;
78664;SDS011;67981;51.022;-2.870;2024-01-15T08:45:47;0.95;;;0.68;;
78664;SDS011;67981;51.022;-2.870;2024-01-15T08:48:13;2.58;;;1.33;;
78664;SDS011;67981;51.022;-2.870;2024-01-15T08:50:38;10.27;;;1.10;;
78664;SDS011;67981;51.022;-2.870;2024-01-15T08:53:04;3.13;;;1.27;;
78664;SDS011;67981;51.022;-2.870;2024-01-15T08:55:29;2.67;;;1.30;;
78664;SDS011;67981;51.022;-2.870;2024-01-15T08:57:54;2.78;;;0.77;;
78664;SDS011;67981;51.022;-2.870;2024-01-15T09:00:20;4.85;;;0.90;;
78664;SDS011;67981;51.022;-2.870;2024-01-15T09:02:46;4.03;;;1.25;;
78664;SDS011;67981;51.022;-2.870;2024-01-15T09:05:11;3.30;;;1.25;;
78664;SDS011;67981;51.022;-2.870;2024-01-15T09:07:36;2.20;;;1.00;;
78664;SDS011;67981;51.022;-2.870;2024-01-15T09:10:02;1.52;;;0.98;;
78664;SDS011;67981;51.022;-2.870;2024-01-15T09:12:28;2.60;;;1.60;;
78664;SDS011;67981;51.022;-2.870;2024-01-15T09:14:54;6.03;;;1.33;;
78664;SDS011;67981;51.022;-2.870;2024-01-15T09:17:20;3.58;;;0.90;;
78664;SDS011;67981;51.022;-2.870;2024-01-15T09:19:48;2.30;;;1.05;;
78664;SDS011;67981;51.022;-2.870;2024-01-15T09:22:14;4.50;;;1.20;;
78664;SDS011;67981;51.022;-2.870;2024-01-15T09:24:42;2.95;;;1.27;;
78664;SDS011;67981;51.022;-2.870;2024-01-15T09:27:08;1.77;;;1.05;;
78664;SDS011;67981;51.022;-2.870;2024-01-15T09:29:33;2.90;;;0.98;;
78664;SDS011;67981;51.022;-2.870;2024-01-15T09:31:58;3.38;;;1.15;;
78664;SDS011;67981;51.022;-2.870;2024-01-15T09:34:24;2.70;;;1.02;;
78664;SDS011;67981;51.022;-2.870;2024-01-15T09:36:49;2.13;;;1.02;;
78664;SDS011;67981;51.022;-2.870;2024-01-15T09:39:15;3.13;;;1.00;;
78664;SDS011;67981;51.022;-2.870;2024-01-15T09:41:40;8.88;;;3.20;;
78664;SDS011;67981;51.022;-2.870;2024-01-15T09:44:06;42.13;;;20.05;;
78664;SDS011;67981;51.022;-2.870;2024-01-15T09:46:33;37.85;;;19.95;;
78664;SDS011;67981;51.022;-2.870;2024-01-15T09:49:00;21.35;;;9.60;;
78664;SDS011;67981;51.022;-2.870;2024-01-15T09:51:27;22.00;;;12.20;;
78664;SDS011;67981;51.022;-2.870;2024-01-15T09:53:56;11.35;;;4.63;;
78664;SDS011;67981;51.022;-2.870;2024-01-15T09:56:22;16.33;;;8.02;;
78664;SDS011;67981;51.022;-2.870;2024-01-15T09:58:48;25.38;;;10.73;;
78664;SDS011;67981;51.022;-2.870;2024-01-15T10:01:16;18.02;;;6.32;;
78664;SDS011;67981;51.022;-2.870;2024-01-15T10:03:42;5.65;;;3.20;;
78664;SDS011;67981;51.022;-2.870;2024-01-15T10:06:07;5.03;;;1.25;;
78664;SDS011;67981;51.022;-2.870;2024-01-15T10:08:34;3.83;;;1.40;;
78664;SDS011;67981;51.022;-2.870;2024-01-15T10:11:01;3.08;;;1.27;;
78664;SDS011;67981;51.022;-2.870;2024-01-15T10:13:29;2.53;;;1.02;;
78664;SDS011;67981;51.022;-2.870;2024-01-15T10:15:55;2.90;;;1.60;;
78664;SDS011;67981;51.022;-2.870;2024-01-15T10:18:20;2.42;;;1.50;;
78664;SDS011;67981;51.022;-2.870;2024-01-15T10:20:46;4.25;;;1.55;;
78664;SDS011;67981;51.022;-2.870;2024-01-15T10:23:13;3.03;;;1.42;;
78664;SDS011;67981;51.022;-2.870;2024-01-15T10:25:40;3.90;;;1.48;;
78664;SDS011;67981;51.022;-2.870;2024-01-15T10:28:07;28.55;;;13.73;;
78664;SDS011;67981;51.022;-2.870;2024-01-15T10:30:33;18.48;;;10.35;;
78664;SDS011;67981;51.022;-2.870;2024-01-15T10:33:02;22.45;;;10.52;;
78664;SDS011;67981;51.022;-2.870;2024-01-15T10:35:32;7.55;;;3.97;;
78664;SDS011;67981;51.022;-2.870;2024-01-15T10:38:00;6.63;;;3.75;;
78664;SDS011;67981;51.022;-2.870;2024-01-15T10:40:25;5.03;;;2.85;;
78664;SDS011;67981;51.022;-2.870;2024-01-15T10:42:51;7.35;;;2.78;;
78664;SDS011;67981;51.022;-2.870;2024-01-15T10:45:17;8.43;;;2.63;;
78664;SDS011;67981;51.022;-2.870;2024-01-15T10:47:43;3.08;;;2.17;;
78664;SDS011;67981;51.022;-2.870;2024-01-15T10:50:09;7.15;;;4.15;;
78664;SDS011;67981;51.022;-2.870;2024-01-15T10:52:36;5.40;;;2.88;;
78664;SDS011;67981;51.022;-2.870;2024-01-15T10:55:03;6.47;;;2.50;;
78664;SDS011;67981;51.022;-2.870;2024-01-15T10:57:29;3.13;;;1.77;;
78664;SDS011;67981;51.022;-2.870;2024-01-15T10:59:55;5.28;;;1.55;;
78664;SDS011;67981;51.022;-2.870;2024-01-15T11:02:21;3.38;;;1.08;;
78664;SDS011;67981;51.022;-2.870;2024-01-15T11:04:46;1.80;;;0.85;;
78664;SDS011;67981;51.022;-2.870;2024-01-15T11:07:12;2.35;;;0.70;;
78664;SDS011;67981;51.022;-2.870;2024-01-15T11:09:39;6.72;;;1.15;;
78664;SDS011;67981;51.022;-2.870;2024-01-15T11:12:12;0.75;;;0.45;;
78664;SDS011;67981;51.022;-2.870;2024-01-15T11:14:44;3.15;;;0.95;;
78664;SDS011;67981;51.022;-2.870;2024-01-15T11:17:15;4.30;;;0.70;;
78664;SDS011;67981;51.022;-2.870;2024-01-15T11:22:10;6.80;;;1.50;;
78664;SDS011;67981;51.022;-2.870;2024-01-15T11:25:02;1.75;;;0.50;;
78664;SDS011;67981;51.022;-2.870;2024-01-15T11:27:47;3.38;;;0.88;;
78664;SDS011;67981;51.022;-2.870;2024-01-15T11:30:17;17.42;;;4.85;;
78664;SDS011;67981;51.022;-2.870;2024-01-15T11:32:45;4.07;;;1.02;;
78664;SDS011;67981;51.022;-2.870;2024-01-15T11:35:11;5.20;;;2.75;;
78664;SDS011;67981;51.022;-2.870;2024-01-15T11:40:19;3.70;;;0.82;;
78664;SDS011;67981;51.022;-2.870;2024-01-15T11:42:48;3.90;;;0.63;;
78664;SDS011;67981;51.022;-2.870;2024-01-15T11:45:18;2.67;;;1.20;;
78664;SDS011;67981;51.022;-2.870;2024-01-15T11:50:45;4.65;;;1.55;;
78664;SDS011;67981;51.022;-2.870;2024-01-15T11:53:33;2.28;;;0.60;;
78664;SDS011;67981;51.022;-2.870;2024-01-15T11:56:15;5.85;;;1.50;;
78664;SDS011;67981;51.022;-2.870;2024-01-15T11:58:42;1.95;;;0.70;;
78664;SDS011;67981;51.022;-2.870;2024-01-15T12:01:08;3.42;;;1.00;;
78664;SDS011;67981;51.022;-2.870;2024-01-15T12:03:34;3.08;;;0.90;;
78664;SDS011;67981;51.022;-2.870;2024-01-15T12:05:59;5.13;;;1.48;;
78664;SDS011;67981;51.022;-2.870;2024-01-15T12:08:26;2.70;;;1.20;;
78664;SDS011;67981;51.022;-2.870;2024-01-15T12:10:52;2.85;;;0.90;;
78664;SDS011;67981;51.022;-2.870;2024-01-15T12:13:18;8.07;;;2.22;;
78664;SDS011;67981;51.022;-2.870;2024-01-15T12:15:45;0.98;;;0.45;;
78664;SDS011;67981;51.022;-2.870;2024-01-15T12:18:12;8.13;;;2.05;;
78664;SDS011;67981;51.022;-2.870;2024-01-15T12:20:39;2.05;;;0.85;;
78664;SDS011;67981;51.022;-2.870;2024-01-15T12:23:07;2.08;;;0.90;;
78664;SDS011;67981;51.022;-2.870;2024-01-15T12:25:33;2.95;;;0.93;;
78664;SDS011;67981;51.022;-2.870;2024-01-15T12:27:59;3.97;;;1.13;;
78664;SDS011;67981;51.022;-2.870;2024-01-15T12:30:26;4.20;;;1.52;;
78664;SDS011;67981;51.022;-2.870;2024-01-15T12:32:52;5.70;;;1.83;;
78664;SDS011;67981;51.022;-2.870;2024-01-15T12:35:18;10.18;;;3.22;;
78664;SDS011;67981;51.022;-2.870;2024-01-15T12:37:43;1.33;;;0.90;;
78664;SDS011;67981;51.022;-2.870;2024-01-15T12:42:41;2.53;;;1.00;;
78664;SDS011;67981;51.022;-2.870;2024-01-15T12:45:08;1.35;;;0.75;;
78664;SDS011;67981;51.022;-2.870;2024-01-15T12:47:34;3.20;;;1.40;;
78664;SDS011;67981;51.022;-2.870;2024-01-15T12:50:01;1.58;;;1.20;;
78664;SDS011;67981;51.022;-2.870;2024-01-15T12:52:29;3.83;;;1.10;;
78664;SDS011;67981;51.022;-2.870;2024-01-15T12:54:55;1.88;;;1.13;;
78664;SDS011;67981;51.022;-2.870;2024-01-15T12:57:21;2.45;;;1.35;;
78664;SDS011;67981;51.022;-2.870;2024-01-15T12:59:46;2.38;;;1.00;;
78664;SDS011;67981;51.022;-2.870;2024-01-15T13:02:12;2.33;;;0.98;;
78664;SDS011;67981;51.022;-2.870;2024-01-15T13:04:38;2.10;;;0.90;;
78664;SDS011;67981;51.022;-2.870;2024-01-15T13:07:05;2.45;;;1.30;;
78664;SDS011;67981;51.022;-2.870;2024-01-15T13:09:31;7.32;;;1.92;;
78664;SDS011;67981;51.022;-2.870;2024-01-15T13:11:56;4.93;;;1.50;;
78664;SDS011;67981;51.022;-2.870;2024-01-15T13:14:22;2.17;;;1.33;;
78664;SDS011;67981;51.022;-2.870;2024-01-15T13:16:48;1.35;;;0.93;;
78664;SDS011;67981;51.022;-2.870;2024-01-15T13:19:13;1.83;;;0.82;;
78664;SDS011;67981;51.022;-2.870;2024-01-15T13:21:41;1.77;;;1.05;;
78664;SDS011;67981;51.022;-2.870;2024-01-15T13:24:07;2.00;;;0.93;;
78664;SDS011;67981;51.022;-2.870;2024-01-15T13:26:33;3.40;;;1.58;;
78664;SDS011;67981;51.022;-2.870;2024-01-15T13:29:02;2.50;;;1.10;;
78664;SDS011;67981;51.022;-2.870;2024-01-15T13:31:31;2.05;;;1.05;;
78664;SDS011;67981;51.022;-2.870;2024-01-15T13:33:58;1.05;;;0.73;;
78664;SDS011;67981;51.022;-2.870;2024-01-15T13:36:24;1.40;;;0.93;;
78664;SDS011;67981;51.022;-2.870;2024-01-15T13:38:50;4.90;;;1.05;;
78664;SDS011;67981;51.022;-2.870;2024-01-15T13:41:17;3.03;;;1.27;;
78664;SDS011;67981;51.022;-2.870;2024-01-15T13:43:45;4.22;;;1.02;;
78664;SDS011;67981;51.022;-2.870;2024-01-15T13:46:11;5.75;;;1.10;;
78664;SDS011;67981;51.022;-2.870;2024-01-15T13:48:36;3.85;;;1.55;;
78664;SDS011;67981;51.022;-2.870;2024-01-15T13:51:02;13.70;;;4.60;;
78664;SDS011;67981;51.022;-2.870;2024-01-15T13:53:27;3.28;;;0.88;;
78664;SDS011;67981;51.022;-2.870;2024-01-15T13:55:53;2.00;;;0.88;;
78664;SDS011;67981;51.022;-2.870;2024-01-15T13:58:18;2.22;;;1.73;;
78664;SDS011;67981;51.022;-2.870;2024-01-15T14:00:44;2.78;;;0.90;;
78664;SDS011;67981;51.022;-2.870;2024-01-15T14:03:09;1.30;;;0.90;;
78664;SDS011;67981;51.022;-2.870;2024-01-15T14:05:34;1.83;;;1.05;;
78664;SDS011;67981;51.022;-2.870;2024-01-15T14:08:00;3.78;;;1.42;;
78664;SDS011;67981;51.022;-2.870;2024-01-15T14:10:25;1.92;;;0.85;;
78664;SDS011;67981;51.022;-2.870;2024-01-15T14:12:51;0.93;;;0.43;;
78664;SDS011;67981;51.022;-2.870;2024-01-15T14:15:16;1.75;;;1.00;;
78664;SDS011;67981;51.022;-2.870;2024-01-15T14:17:41;7.70;;;3.15;;
78664;SDS011;67981;51.022;-2.870;2024-01-15T14:20:07;3.47;;;1.02;;
78664;SDS011;67981;51.022;-2.870;2024-01-15T14:22:34;4.38;;;2.45;;
78664;SDS011;67981;51.022;-2.870;2024-01-15T14:25:00;3.90;;;0.85;;
78664;SDS011;67981;51.022;-2.870;2024-01-15T14:27:26;1.92;;;0.80;;
78664;SDS011;67981;51.022;-2.870;2024-01-15T14:29:51;2.17;;;1.15;;
78664;SDS011;67981;51.022;-2.870;2024-01-15T14:32:17;2.50;;;1.30;;
78664;SDS011;67981;51.022;-2.870;2024-01-15T14:34:42;2.30;;;0.65;;
78664;SDS011;67981;51.022;-2.870;2024-01-15T14:37:08;1.33;;;0.80;;
78664;SDS011;67981;51.022;-2.870;2024-01-15T14:39:33;2.22;;;1.38;;